Eleonora E — MEDD4 — position and weather

sailwx.info

Track history (hours):
 
Tides and Currents Weather Stations Pressure Air Temp Water Temp Dewpoint Dewpoint Depression Visibility Wind Speed Wind Dir Waves Ship Positions

Eleonora E

Last reported at 2015-Jul-30 12:09 UTC. Time now 2015-Jul-30 18:14 UTC.
Position N 50°47' W 001°16'.

Length 41 m; draft 5.2 m.

Type: Sailing vessel. MMSI: 235008680.

Date/timePositionNaut miles runAvg speedWind from/ knotsBaromVisibWave heightAir tempDewpointWater temp
2015-Jul-30 12:09N 50°47' W 001°16'4 6.9
2015-Jul-30 11:33N 50°46' W 001°10'1 0.7
2015-Jul-30 10:32N 50°46' W 001°10'4 1.9
2015-Jul-30 08:23N 50°47' W 001°16'0 0.0
2015-Jul-29 17:18N 50°46' W 001°17'1 1.9
2015-Jul-29 16:33N 50°46' W 001°15'0 0.0
2015-Jul-29 15:31N 50°46' W 001°15'0 0.2
2015-Jul-29 14:33N 50°46' W 001°15'7 1.2
2015-Jul-29 08:34N 50°43' W 001°04'7 6.8
2015-Jul-29 07:32N 50°47' W 001°14'2 0.1
2015-Jul-28 16:20N 50°46' W 001°15'1 0.6
2015-Jul-28 15:32N 50°46' W 001°15'0 0.0
2015-Jul-28 14:30N 50°46' W 001°15'3 3.1
2015-Jul-28 13:33N 50°46' W 001°10'4 3.7
2015-Jul-28 12:33N 50°45' W 001°04'9 8.5
2015-Jul-28 11:26N 50°47' W 001°19'2 1.6
2015-Jul-28 10:26N 50°46' W 001°17'3 3.4
2015-Jul-28 09:32N 50°45' W 001°12'2 1.7
2015-Jul-28 08:33N 50°46' W 001°15'2 0.1
2015-Jul-26 15:32N 50°46' W 001°18'0 0.0
2015-Jul-26 14:33N 50°46' W 001°18'0 0.0
2015-Jul-26 13:33N 50°46' W 001°18'0 0.0
2015-Jul-26 12:33N 50°46' W 001°18'0 0.2
2015-Jul-26 11:32N 50°46' W 001°18'4 3.8
2015-Jul-26 10:32N 50°45' W 001°24'3 2.2
2015-Jul-26 09:19N 50°46' W 001°20'1 1.5
2015-Jul-26 08:32N 50°46' W 001°18'0 0.0
2015-Jul-26 07:31N 50°46' W 001°18'0 0.0
2015-Jul-26 06:33N 50°46' W 001°18'0 0.0
2015-Jul-26 05:10N 50°46' W 001°18'0 0.0
2015-Jul-26 04:29N 50°46' W 001°18'0 0.0
2015-Jul-26 03:27N 50°46' W 001°18'0 0.0
2015-Jul-26 02:30N 50°46' W 001°18'0 0.0
2015-Jul-26 01:15N 50°46' W 001°18'0 0.0
2015-Jul-26 00:32N 50°46' W 001°18'0 0.0
2015-Jul-25 23:26N 50°46' W 001°18'0 0.0
2015-Jul-25 22:29N 50°46' W 001°18'0 0.0
2015-Jul-25 15:21N 50°46' W 001°18'0 0.0
2015-Jul-25 14:05N 50°46' W 001°18'0 0.0
2015-Jul-25 13:32N 50°46' W 001°18'0 0.0
2015-Jul-25 12:33N 50°46' W 001°18'0 0.0
2015-Jul-25 11:32N 50°46' W 001°18'0 0.0
2015-Jul-25 10:34N 50°46' W 001°18'0 0.0
2015-Jul-25 01:32N 50°46' W 001°18'0 0.0
2015-Jul-25 00:32N 50°46' W 001°18'0 0.0
2015-Jul-24 23:33N 50°46' W 001°18'0 0.0
2015-Jul-24 22:32N 50°46' W 001°18'0 0.0
2015-Jul-24 21:33N 50°46' W 001°18'0 0.0
2015-Jul-24 20:33N 50°46' W 001°18'0 0.0
2015-Jul-24 19:32N 50°46' W 001°18'0 0.0
2015-Jul-24 18:32N 50°46' W 001°18'0 0.0
2015-Jul-24 17:33N 50°46' W 001°18'0 0.0
2015-Jul-24 16:33N 50°46' W 001°18'0 0.0
2015-Jul-24 15:33N 50°46' W 001°18'0 0.0
2015-Jul-24 14:32N 50°46' W 001°18'0 0.0
2015-Jul-24 13:17N 50°46' W 001°18'9 0.3
2015-Jul-23 10:12N 50°43' W 001°32'8 2.8
2015-Jul-23 07:23N 50°46' W 001°21'1 1.5
2015-Jul-23 06:31N 50°46' W 001°18'0 0.3
2015-Jul-23 05:13N 50°46' W 001°18'0 0.0
2015-Jul-22 12:14N 50°46' W 001°18'2 3.0
2015-Jul-22 11:33N 50°46' W 001°15'3 1.5
2015-Jul-22 09:17N 50°46' W 001°20'2 2.1
2015-Jul-22 08:18N 50°46' W 001°17'1 0.7
2015-Jul-22 07:20N 50°46' W 001°18'0 0.0
2015-Jul-21 15:25N 50°46' W 001°18'2 0.9
2015-Jul-21 13:31N 50°47' W 001°20'1 0.2
2015-Jul-21 09:32N 50°46' W 001°20'2 1.6
2015-Jul-21 08:33N 50°47' W 001°19'2 0.9
2015-Jul-21 06:31N 50°46' W 001°17'2 0.1
2015-Jul-20 13:29N 50°46' W 001°20'5 5.0
2015-Jul-20 12:31N 50°47' W 001°12'  
Track history (hours):
 
Tides and Currents Weather Stations Pressure Air Temp Water Temp Dewpoint Dewpoint Depression Visibility Wind Speed Wind Dir Waves Ship Positions

Eleonora E

Last reported at 2015-Jul-30 12:09 UTC. Time now 2015-Jul-30 18:14 UTC.
Position N 50°47' W 001°16'.

Length 41 m; draft 5.2 m.

Type: Sailing vessel. MMSI: 235008680.

Date/timePositionNaut miles runAvg speedWind from/ knotsBaromVisibWave heightAir tempDewpointWater temp
2015-Jul-30 12:09N 50°47' W 001°16'4 6.9
2015-Jul-30 11:33N 50°46' W 001°10'1 0.7
2015-Jul-30 10:32N 50°46' W 001°10'4 1.9
2015-Jul-30 08:23N 50°47' W 001°16'0 0.0
2015-Jul-29 17:18N 50°46' W 001°17'1 1.9
2015-Jul-29 16:33N 50°46' W 001°15'0 0.0
2015-Jul-29 15:31N 50°46' W 001°15'0 0.2
2015-Jul-29 14:33N 50°46' W 001°15'7 1.2
2015-Jul-29 08:34N 50°43' W 001°04'7 6.8
2015-Jul-29 07:32N 50°47' W 001°14'2 0.1
2015-Jul-28 16:20N 50°46' W 001°15'1 0.6
2015-Jul-28 15:32N 50°46' W 001°15'0 0.0
2015-Jul-28 14:30N 50°46' W 001°15'3 3.1
2015-Jul-28 13:33N 50°46' W 001°10'4 3.7
2015-Jul-28 12:33N 50°45' W 001°04'9 8.5
2015-Jul-28 11:26N 50°47' W 001°19'2 1.6
2015-Jul-28 10:26N 50°46' W 001°17'3 3.4
2015-Jul-28 09:32N 50°45' W 001°12'2 1.7
2015-Jul-28 08:33N 50°46' W 001°15'2 0.1
2015-Jul-26 15:32N 50°46' W 001°18'0 0.0
2015-Jul-26 14:33N 50°46' W 001°18'0 0.0
2015-Jul-26 13:33N 50°46' W 001°18'0 0.0
2015-Jul-26 12:33N 50°46' W 001°18'0 0.2
2015-Jul-26 11:32N 50°46' W 001°18'4 3.8
2015-Jul-26 10:32N 50°45' W 001°24'3 2.2
2015-Jul-26 09:19N 50°46' W 001°20'1 1.5
2015-Jul-26 08:32N 50°46' W 001°18'0 0.0
2015-Jul-26 07:31N 50°46' W 001°18'0 0.0
2015-Jul-26 06:33N 50°46' W 001°18'0 0.0
2015-Jul-26 05:10N 50°46' W 001°18'0 0.0
2015-Jul-26 04:29N 50°46' W 001°18'0 0.0
2015-Jul-26 03:27N 50°46' W 001°18'0 0.0
2015-Jul-26 02:30N 50°46' W 001°18'0 0.0
2015-Jul-26 01:15N 50°46' W 001°18'0 0.0
2015-Jul-26 00:32N 50°46' W 001°18'0 0.0
2015-Jul-25 23:26N 50°46' W 001°18'0 0.0
2015-Jul-25 22:29N 50°46' W 001°18'0 0.0
2015-Jul-25 15:21N 50°46' W 001°18'0 0.0
2015-Jul-25 14:05N 50°46' W 001°18'0 0.0
2015-Jul-25 13:32N 50°46' W 001°18'0 0.0
2015-Jul-25 12:33N 50°46' W 001°18'0 0.0
2015-Jul-25 11:32N 50°46' W 001°18'0 0.0
2015-Jul-25 10:34N 50°46' W 001°18'0 0.0
2015-Jul-25 01:32N 50°46' W 001°18'0 0.0
2015-Jul-25 00:32N 50°46' W 001°18'0 0.0
2015-Jul-24 23:33N 50°46' W 001°18'0 0.0
2015-Jul-24 22:32N 50°46' W 001°18'0 0.0
2015-Jul-24 21:33N 50°46' W 001°18'0 0.0
2015-Jul-24 20:33N 50°46' W 001°18'0 0.0
2015-Jul-24 19:32N 50°46' W 001°18'0 0.0
2015-Jul-24 18:32N 50°46' W 001°18'0 0.0
2015-Jul-24 17:33N 50°46' W 001°18'0 0.0
2015-Jul-24 16:33N 50°46' W 001°18'0 0.0
2015-Jul-24 15:33N 50°46' W 001°18'0 0.0
2015-Jul-24 14:32N 50°46' W 001°18'0 0.0
2015-Jul-24 13:17N 50°46' W 001°18'9 0.3
2015-Jul-23 10:12N 50°43' W 001°32'8 2.8
2015-Jul-23 07:23N 50°46' W 001°21'1 1.5
2015-Jul-23 06:31N 50°46' W 001°18'0 0.3
2015-Jul-23 05:13N 50°46' W 001°18'0 0.0
2015-Jul-22 12:14N 50°46' W 001°18'2 3.0
2015-Jul-22 11:33N 50°46' W 001°15'3 1.5
2015-Jul-22 09:17N 50°46' W 001°20'2 2.1
2015-Jul-22 08:18N 50°46' W 001°17'1 0.7
2015-Jul-22 07:20N 50°46' W 001°18'0 0.0
2015-Jul-21 15:25N 50°46' W 001°18'2 0.9
2015-Jul-21 13:31N 50°47' W 001°20'1 0.2
2015-Jul-21 09:32N 50°46' W 001°20'2 1.6
2015-Jul-21 08:33N 50°47' W 001°19'2 0.9
2015-Jul-21 06:31N 50°46' W 001°17'2 0.1
2015-Jul-20 13:29N 50°46' W 001°20'5 5.0
2015-Jul-20 12:31N 50°47' W 001°12'  

Dump ship's entire track history